sensor_id;sensor_type;location;lat;lon;timestamp;temperature;humidity
73137;DHT22;67767;45.636;11.756;2023-06-04T00:01:19;21.40;86.60
73137;DHT22;67767;45.636;11.756;2023-06-04T00:03:45;21.40;86.90
73137;DHT22;67767;45.636;11.756;2023-06-04T00:06:11;21.40;86.60
73137;DHT22;67767;45.636;11.756;2023-06-04T00:08:37;21.50;86.70
73137;DHT22;67767;45.636;11.756;2023-06-04T00:11:03;21.50;86.30
73137;DHT22;67767;45.636;11.756;2023-06-04T00:13:28;21.40;86.40
73137;DHT22;67767;45.636;11.756;2023-06-04T00:15:54;21.30;87.10
73137;DHT22;67767;45.636;11.756;2023-06-04T00:18:20;21.30;87.30
73137;DHT22;67767;45.636;11.756;2023-06-04T00:20:45;21.40;86.70
73137;DHT22;67767;45.636;11.756;2023-06-04T00:23:11;21.30;87.10
73137;DHT22;67767;45.636;11.756;2023-06-04T00:25:37;21.30;87.40
73137;DHT22;67767;45.636;11.756;2023-06-04T00:28:02;21.20;87.70
73137;DHT22;67767;45.636;11.756;2023-06-04T00:30:28;21.30;87.70
73137;DHT22;67767;45.636;11.756;2023-06-04T00:32:54;21.40;87.50
73137;DHT22;67767;45.636;11.756;2023-06-04T00:35:19;21.30;87.10
73137;DHT22;67767;45.636;11.756;2023-06-04T00:37:46;21.40;87.30
73137;DHT22;67767;45.636;11.756;2023-06-04T00:40:12;21.40;87.00
73137;DHT22;67767;45.636;11.756;2023-06-04T00:42:37;21.40;86.20
73137;DHT22;67767;45.636;11.756;2023-06-04T00:45:04;21.40;86.20
73137;DHT22;67767;45.636;11.756;2023-06-04T00:47:33;21.40;86.00
73137;DHT22;67767;45.636;11.756;2023-06-04T00:49:59;21.30;86.70
73137;DHT22;67767;45.636;11.756;2023-06-04T00:52:25;21.30;86.70
73137;DHT22;67767;45.636;11.756;2023-06-04T00:54:52;21.20;85.90
73137;DHT22;67767;45.636;11.756;2023-06-04T00:57:17;21.20;86.20
73137;DHT22;67767;45.636;11.756;2023-06-04T00:59:43;21.10;85.50
73137;DHT22;67767;45.636;11.756;2023-06-04T01:02:12;21.20;85.60
73137;DHT22;67767;45.636;11.756;2023-06-04T01:05:21;21.10;85.30
73137;DHT22;67767;45.636;11.756;2023-06-04T01:07:52;21.10;86.20
73137;DHT22;67767;45.636;11.756;2023-06-04T01:10:18;21.10;86.40
73137;DHT22;67767;45.636;11.756;2023-06-04T01:12:44;21.10;86.20
73137;DHT22;67767;45.636;11.756;2023-06-04T01:15:10;21.00;86.60
73137;DHT22;67767;45.636;11.756;2023-06-04T01:17:42;21.00;86.60
73137;DHT22;67767;45.636;11.756;2023-06-04T01:20:39;21.10;86.70
73137;DHT22;67767;45.636;11.756;2023-06-04T01:26:03;21.00;85.90
73137;DHT22;67767;45.636;11.756;2023-06-04T01:28:30;21.10;85.90
73137;DHT22;67767;45.636;11.756;2023-06-04T01:30:57;20.90;85.90
73137;DHT22;67767;45.636;11.756;2023-06-04T01:33:25;20.90;85.90
73137;DHT22;67767;45.636;11.756;2023-06-04T01:35:51;21.00;85.50
73137;DHT22;67767;45.636;11.756;2023-06-04T01:38:17;20.80;86.30
73137;DHT22;67767;45.636;11.756;2023-06-04T01:40:42;20.80;86.40
73137;DHT22;67767;45.636;11.756;2023-06-04T01:43:08;20.90;86.60
73137;DHT22;67767;45.636;11.756;2023-06-04T01:45:34;20.80;86.40
73137;DHT22;67767;45.636;11.756;2023-06-04T01:48:04;21.00;85.10
73137;DHT22;67767;45.636;11.756;2023-06-04T01:50:30;20.90;86.10
73137;DHT22;67767;45.636;11.756;2023-06-04T01:52:56;21.00;84.30
73137;DHT22;67767;45.636;11.756;2023-06-04T01:55:22;21.00;84.20
73137;DHT22;67767;45.636;11.756;2023-06-04T01:57:50;21.00;83.90
73137;DHT22;67767;45.636;11.756;2023-06-04T02:00:16;21.00;83.20
73137;DHT22;67767;45.636;11.756;2023-06-04T02:02:45;21.10;83.60
73137;DHT22;67767;45.636;11.756;2023-06-04T02:05:14;21.10;83.20
73137;DHT22;67767;45.636;11.756;2023-06-04T02:07:42;21.20;83.40
73137;DHT22;67767;45.636;11.756;2023-06-04T02:10:14;21.10;83.50
73137;DHT22;67767;45.636;11.756;2023-06-04T02:12:52;21.10;84.20
73137;DHT22;67767;45.636;11.756;2023-06-04T02:15:18;20.90;86.00
73137;DHT22;67767;45.636;11.756;2023-06-04T02:17:43;20.80;86.50
73137;DHT22;67767;45.636;11.756;2023-06-04T02:20:11;20.80;86.70
73137;DHT22;67767;45.636;11.756;2023-06-04T02:22:37;20.90;87.00
73137;DHT22;67767;45.636;11.756;2023-06-04T02:25:06;20.80;87.40
73137;DHT22;67767;45.636;11.756;2023-06-04T02:27:34;20.70;88.00
73137;DHT22;67767;45.636;11.756;2023-06-04T02:30:01;20.70;88.10
73137;DHT22;67767;45.636;11.756;2023-06-04T02:32:27;20.70;88.30
73137;DHT22;67767;45.636;11.756;2023-06-04T02:34:54;20.70;88.60
73137;DHT22;67767;45.636;11.756;2023-06-04T02:37:21;20.80;88.90
73137;DHT22;67767;45.636;11.756;2023-06-04T02:39:46;20.70;89.00
73137;DHT22;67767;45.636;11.756;2023-06-04T02:42:12;20.80;88.70
73137;DHT22;67767;45.636;11.756;2023-06-04T02:44:38;20.70;88.50
73137;DHT22;67767;45.636;11.756;2023-06-04T02:47:03;20.70;88.60
73137;DHT22;67767;45.636;11.756;2023-06-04T02:49:29;20.60;88.30
73137;DHT22;67767;45.636;11.756;2023-06-04T02:51:55;20.70;88.00
73137;DHT22;67767;45.636;11.756;2023-06-04T02:54:21;20.80;88.40
73137;DHT22;67767;45.636;11.756;2023-06-04T02:56:47;20.80;88.50
73137;DHT22;67767;45.636;11.756;2023-06-04T02:59:14;20.70;88.70
73137;DHT22;67767;45.636;11.756;2023-06-04T03:01:40;20.70;89.10
73137;DHT22;67767;45.636;11.756;2023-06-04T03:04:06;20.70;89.00
73137;DHT22;67767;45.636;11.756;2023-06-04T03:06:36;20.70;89.30
73137;DHT22;67767;45.636;11.756;2023-06-04T03:09:03;20.70;89.40
73137;DHT22;67767;45.636;11.756;2023-06-04T03:11:29;20.70;89.40
73137;DHT22;67767;45.636;11.756;2023-06-04T03:13:55;20.70;89.50
73137;DHT22;67767;45.636;11.756;2023-06-04T03:16:21;20.80;89.00
73137;DHT22;67767;45.636;11.756;2023-06-04T03:18:47;20.90;88.90
73137;DHT22;67767;45.636;11.756;2023-06-04T03:21:12;20.90;88.70
73137;DHT22;67767;45.636;11.756;2023-06-04T03:23:39;20.90;88.60
73137;DHT22;67767;45.636;11.756;2023-06-04T03:26:05;20.90;86.50
73137;DHT22;67767;45.636;11.756;2023-06-04T03:28:32;20.90;86.60
73137;DHT22;67767;45.636;11.756;2023-06-04T03:30:58;20.90;86.50
73137;DHT22;67767;45.636;11.756;2023-06-04T03:33:24;20.90;86.10
73137;DHT22;67767;45.636;11.756;2023-06-04T03:35:51;21.00;86.00
73137;DHT22;67767;45.636;11.756;2023-06-04T03:38:18;21.00;86.00
73137;DHT22;67767;45.636;11.756;2023-06-04T03:40:44;21.00;85.80
73137;DHT22;67767;45.636;11.756;2023-06-04T03:43:10;21.10;86.40
73137;DHT22;67767;45.636;11.756;2023-06-04T03:45:36;21.10;85.80
73137;DHT22;67767;45.636;11.756;2023-06-04T03:48:02;21.00;86.10
73137;DHT22;67767;45.636;11.756;2023-06-04T03:50:27;20.90;86.10
73137;DHT22;67767;45.636;11.756;2023-06-04T03:52:53;21.00;85.60
73137;DHT22;67767;45.636;11.756;2023-06-04T03:55:19;21.00;84.90
73137;DHT22;67767;45.636;11.756;2023-06-04T03:57:44;21.00;83.70
73137;DHT22;67767;45.636;11.756;2023-06-04T04:00:11;21.00;82.80
73137;DHT22;67767;45.636;11.756;2023-06-04T04:02:40;21.10;82.20
73137;DHT22;67767;45.636;11.756;2023-06-04T04:05:06;21.10;82.10
73137;DHT22;67767;45.636;11.756;2023-06-04T04:07:32;21.10;82.40
73137;DHT22;67767;45.636;11.756;2023-06-04T04:09:57;21.00;82.90
73137;DHT22;67767;45.636;11.756;2023-06-04T04:12:23;21.00;85.20
73137;DHT22;67767;45.636;11.756;2023-06-04T04:14:49;21.00;84.60
73137;DHT22;67767;45.636;11.756;2023-06-04T04:17:15;20.90;84.50
73137;DHT22;67767;45.636;11.756;2023-06-04T04:19:40;20.90;86.70
73137;DHT22;67767;45.636;11.756;2023-06-04T04:22:06;20.80;86.80
73137;DHT22;67767;45.636;11.756;2023-06-04T04:24:34;20.70;86.90
73137;DHT22;67767;45.636;11.756;2023-06-04T04:27:02;20.70;87.00
73137;DHT22;67767;45.636;11.756;2023-06-04T04:29:29;20.70;86.90
73137;DHT22;67767;45.636;11.756;2023-06-04T04:31:58;20.80;87.80
73137;DHT22;67767;45.636;11.756;2023-06-04T04:34:26;20.60;87.60
73137;DHT22;67767;45.636;11.756;2023-06-04T04:36:53;20.60;88.10
73137;DHT22;67767;45.636;11.756;2023-06-04T04:39:23;20.50;88.90
73137;DHT22;67767;45.636;11.756;2023-06-04T04:41:49;20.50;89.30
73137;DHT22;67767;45.636;11.756;2023-06-04T04:44:15;20.50;89.40
73137;DHT22;67767;45.636;11.756;2023-06-04T04:46:41;20.40;89.60
73137;DHT22;67767;45.636;11.756;2023-06-04T04:49:06;20.50;89.70
73137;DHT22;67767;45.636;11.756;2023-06-04T04:51:32;20.60;89.80
73137;DHT22;67767;45.636;11.756;2023-06-04T04:53:58;20.60;89.40
73137;DHT22;67767;45.636;11.756;2023-06-04T04:56:26;20.70;89.00
73137;DHT22;67767;45.636;11.756;2023-06-04T04:58:52;20.70;89.40
73137;DHT22;67767;45.636;11.756;2023-06-04T05:01:18;20.70;89.20
73137;DHT22;67767;45.636;11.756;2023-06-04T05:03:44;20.70;89.50
73137;DHT22;67767;45.636;11.756;2023-06-04T05:06:09;20.70;89.50
73137;DHT22;67767;45.636;11.756;2023-06-04T05:08:35;20.60;89.00
73137;DHT22;67767;45.636;11.756;2023-06-04T05:11:01;20.80;88.90
73137;DHT22;67767;45.636;11.756;2023-06-04T05:13:27;20.80;88.90
73137;DHT22;67767;45.636;11.756;2023-06-04T05:15:52;20.90;89.30
73137;DHT22;67767;45.636;11.756;2023-06-04T05:18:19;20.90;88.70
73137;DHT22;67767;45.636;11.756;2023-06-04T05:20:47;20.90;88.30
73137;DHT22;67767;45.636;11.756;2023-06-04T05:23:13;20.90;89.10
73137;DHT22;67767;45.636;11.756;2023-06-04T05:25:39;20.90;88.80
73137;DHT22;67767;45.636;11.756;2023-06-04T05:28:06;21.00;87.80
73137;DHT22;67767;45.636;11.756;2023-06-04T05:30:32;21.00;87.80
73137;DHT22;67767;45.636;11.756;2023-06-04T05:32:59;21.00;88.40
73137;DHT22;67767;45.636;11.756;2023-06-04T05:35:25;21.00;87.60
73137;DHT22;67767;45.636;11.756;2023-06-04T05:37:51;20.90;87.60
73137;DHT22;67767;45.636;11.756;2023-06-04T05:40:22;20.90;87.50
73137;DHT22;67767;45.636;11.756;2023-06-04T05:42:48;20.90;87.60
73137;DHT22;67767;45.636;11.756;2023-06-04T05:45:14;20.90;88.50
73137;DHT22;67767;45.636;11.756;2023-06-04T05:47:40;20.90;88.80
73137;DHT22;67767;45.636;11.756;2023-06-04T05:50:06;21.10;87.90
73137;DHT22;67767;45.636;11.756;2023-06-04T05:52:32;21.10;88.60
73137;DHT22;67767;45.636;11.756;2023-06-04T05:55:00;21.10;87.30
73137;DHT22;67767;45.636;11.756;2023-06-04T05:57:25;21.10;87.70
73137;DHT22;67767;45.636;11.756;2023-06-04T05:59:51;21.20;87.60
73137;DHT22;67767;45.636;11.756;2023-06-04T06:02:17;21.20;87.10
73137;DHT22;67767;45.636;11.756;2023-06-04T06:04:42;21.20;86.80
73137;DHT22;67767;45.636;11.756;2023-06-04T06:07:08;21.30;86.40
73137;DHT22;67767;45.636;11.756;2023-06-04T06:09:34;21.30;85.60
73137;DHT22;67767;45.636;11.756;2023-06-04T06:12:01;21.40;86.20
73137;DHT22;67767;45.636;11.756;2023-06-04T06:14:26;21.50;86.10
73137;DHT22;67767;45.636;11.756;2023-06-04T06:16:52;21.60;86.10
73137;DHT22;67767;45.636;11.756;2023-06-04T06:19:18;21.60;86.50
73137;DHT22;67767;45.636;11.756;2023-06-04T06:21:44;21.50;85.90
73137;DHT22;67767;45.636;11.756;2023-06-04T06:24:10;21.50;86.20
73137;DHT22;67767;45.636;11.756;2023-06-04T06:26:35;21.50;85.70
73137;DHT22;67767;45.636;11.756;2023-06-04T06:29:01;21.50;86.00
73137;DHT22;67767;45.636;11.756;2023-06-04T06:31:27;21.50;85.40
73137;DHT22;67767;45.636;11.756;2023-06-04T06:33:53;21.60;86.60
73137;DHT22;67767;45.636;11.756;2023-06-04T06:36:18;21.60;85.70
73137;DHT22;67767;45.636;11.756;2023-06-04T06:38:45;21.80;85.10
73137;DHT22;67767;45.636;11.756;2023-06-04T06:41:11;21.90;85.40
73137;DHT22;67767;45.636;11.756;2023-06-04T06:43:37;21.80;84.80
73137;DHT22;67767;45.636;11.756;2023-06-04T06:46:03;21.90;83.60
73137;DHT22;67767;45.636;11.756;2023-06-04T06:48:29;21.90;84.80
73137;DHT22;67767;45.636;11.756;2023-06-04T06:50:55;21.80;85.60
73137;DHT22;67767;45.636;11.756;2023-06-04T06:53:21;21.90;86.30
73137;DHT22;67767;45.636;11.756;2023-06-04T06:55:46;22.10;87.00
73137;DHT22;67767;45.636;11.756;2023-06-04T06:58:12;22.20;86.30
73137;DHT22;67767;45.636;11.756;2023-06-04T07:00:38;22.30;85.70
73137;DHT22;67767;45.636;11.756;2023-06-04T07:03:03;22.30;84.80
73137;DHT22;67767;45.636;11.756;2023-06-04T07:05:29;22.20;84.10
73137;DHT22;67767;45.636;11.756;2023-06-04T07:07:55;22.20;83.70
73137;DHT22;67767;45.636;11.756;2023-06-04T07:10:22;22.20;82.00
73137;DHT22;67767;45.636;11.756;2023-06-04T07:12:48;22.20;83.40
73137;DHT22;67767;45.636;11.756;2023-06-04T07:15:14;22.30;83.50
73137;DHT22;67767;45.636;11.756;2023-06-04T07:17:40;22.30;84.00
73137;DHT22;67767;45.636;11.756;2023-06-04T07:20:06;22.20;83.60
73137;DHT22;67767;45.636;11.756;2023-06-04T07:22:35;22.40;83.20
73137;DHT22;67767;45.636;11.756;2023-06-04T07:25:01;22.40;83.40
73137;DHT22;67767;45.636;11.756;2023-06-04T07:27:27;22.50;83.50
73137;DHT22;67767;45.636;11.756;2023-06-04T07:29:52;22.60;83.60
73137;DHT22;67767;45.636;11.756;2023-06-04T07:32:18;22.60;83.50
73137;DHT22;67767;45.636;11.756;2023-06-04T07:34:44;22.60;82.90
73137;DHT22;67767;45.636;11.756;2023-06-04T07:37:09;22.60;82.00
73137;DHT22;67767;45.636;11.756;2023-06-04T07:39:36;22.70;80.50
73137;DHT22;67767;45.636;11.756;2023-06-04T07:42:01;22.60;81.50
73137;DHT22;67767;45.636;11.756;2023-06-04T07:44:27;22.60;81.20
73137;DHT22;67767;45.636;11.756;2023-06-04T07:46:53;22.80;82.10
73137;DHT22;67767;45.636;11.756;2023-06-04T07:49:18;22.90;81.60
73137;DHT22;67767;45.636;11.756;2023-06-04T07:51:45;23.00;80.90
73137;DHT22;67767;45.636;11.756;2023-06-04T07:54:11;23.10;80.00
73137;DHT22;67767;45.636;11.756;2023-06-04T07:56:39;23.30;79.50
73137;DHT22;67767;45.636;11.756;2023-06-04T07:59:05;23.20;78.60
73137;DHT22;67767;45.636;11.756;2023-06-04T08:01:31;23.50;79.00
73137;DHT22;67767;45.636;11.756;2023-06-04T08:03:57;23.70;78.00
73137;DHT22;67767;45.636;11.756;2023-06-04T08:06:24;23.80;76.50
73137;DHT22;67767;45.636;11.756;2023-06-04T08:08:52;23.70;76.30
73137;DHT22;67767;45.636;11.756;2023-06-04T08:11:18;23.70;75.90
73137;DHT22;67767;45.636;11.756;2023-06-04T08:13:43;23.70;74.80
73137;DHT22;67767;45.636;11.756;2023-06-04T08:16:09;23.60;75.20
73137;DHT22;67767;45.636;11.756;2023-06-04T08:18:39;23.60;74.80
73137;DHT22;67767;45.636;11.756;2023-06-04T08:21:05;23.80;75.70
73137;DHT22;67767;45.636;11.756;2023-06-04T08:23:32;23.90;74.40
73137;DHT22;67767;45.636;11.756;2023-06-04T08:25:57;24.10;74.80
73137;DHT22;67767;45.636;11.756;2023-06-04T08:28:24;24.20;73.40
73137;DHT22;67767;45.636;11.756;2023-06-04T08:30:50;24.20;73.90
73137;DHT22;67767;45.636;11.756;2023-06-04T08:33:16;24.30;73.40
73137;DHT22;67767;45.636;11.756;2023-06-04T08:35:41;24.40;72.50
73137;DHT22;67767;45.636;11.756;2023-06-04T08:38:07;24.50;72.40
73137;DHT22;67767;45.636;11.756;2023-06-04T08:40:33;25.00;72.40
73137;DHT22;67767;45.636;11.756;2023-06-04T08:43:00;25.00;71.70
73137;DHT22;67767;45.636;11.756;2023-06-04T08:45:26;25.20;71.60
73137;DHT22;67767;45.636;11.756;2023-06-04T08:47:53;25.10;72.30
73137;DHT22;67767;45.636;11.756;2023-06-04T08:50:21;25.10;71.60
73137;DHT22;67767;45.636;11.756;2023-06-04T08:52:51;25.00;71.50
73137;DHT22;67767;45.636;11.756;2023-06-04T08:55:18;24.90;71.00
73137;DHT22;67767;45.636;11.756;2023-06-04T08:57:44;24.90;71.60
73137;DHT22;67767;45.636;11.756;2023-06-04T09:00:11;24.90;71.50
73137;DHT22;67767;45.636;11.756;2023-06-04T09:02:38;24.90;71.40
73137;DHT22;67767;45.636;11.756;2023-06-04T09:05:04;25.00;71.20
73137;DHT22;67767;45.636;11.756;2023-06-04T09:07:36;25.20;71.50
73137;DHT22;67767;45.636;11.756;2023-06-04T09:10:04;25.10;68.90
73137;DHT22;67767;45.636;11.756;2023-06-04T09:12:30;24.90;68.00
73137;DHT22;67767;45.636;11.756;2023-06-04T09:14:57;24.90;67.30
73137;DHT22;67767;45.636;11.756;2023-06-04T09:17:24;24.80;69.30
73137;DHT22;67767;45.636;11.756;2023-06-04T09:19:50;25.00;70.00
73137;DHT22;67767;45.636;11.756;2023-06-04T09:22:16;25.00;70.10
73137;DHT22;67767;45.636;11.756;2023-06-04T09:24:43;24.90;70.60
73137;DHT22;67767;45.636;11.756;2023-06-04T09:27:16;24.60;69.50
73137;DHT22;67767;45.636;11.756;2023-06-04T09:29:55;24.80;69.80
73137;DHT22;67767;45.636;11.756;2023-06-04T09:32:26;24.80;70.70
73137;DHT22;67767;45.636;11.756;2023-06-04T09:35:17;24.80;70.70
73137;DHT22;67767;45.636;11.756;2023-06-04T09:37:43;24.90;70.50
73137;DHT22;67767;45.636;11.756;2023-06-04T09:40:16;24.80;69.80
73137;DHT22;67767;45.636;11.756;2023-06-04T09:42:47;24.90;69.40
73137;DHT22;67767;45.636;11.756;2023-06-04T09:45:30;24.80;69.60
73137;DHT22;67767;45.636;11.756;2023-06-04T09:47:56;24.70;70.10
73137;DHT22;67767;45.636;11.756;2023-06-04T09:50:29;24.70;69.90
73137;DHT22;67767;45.636;11.756;2023-06-04T09:52:55;24.70;71.10
73137;DHT22;67767;45.636;11.756;2023-06-04T09:55:22;24.20;71.70
73137;DHT22;67767;45.636;11.756;2023-06-04T09:57:49;24.20;71.80
73137;DHT22;67767;45.636;11.756;2023-06-04T10:00:19;24.20;71.90
73137;DHT22;67767;45.636;11.756;2023-06-04T10:02:49;24.30;71.80
73137;DHT22;67767;45.636;11.756;2023-06-04T10:05:16;24.40;72.20
73137;DHT22;67767;45.636;11.756;2023-06-04T10:07:45;24.40;72.00
73137;DHT22;67767;45.636;11.756;2023-06-04T10:10:16;24.40;71.90
73137;DHT22;67767;45.636;11.756;2023-06-04T10:12:42;24.20;71.60
73137;DHT22;67767;45.636;11.756;2023-06-04T10:15:12;24.40;71.40
73137;DHT22;67767;45.636;11.756;2023-06-04T10:17:39;24.40;70.70
73137;DHT22;67767;45.636;11.756;2023-06-04T10:20:06;24.40;71.00
73137;DHT22;67767;45.636;11.756;2023-06-04T10:22:35;24.40;71.30
73137;DHT22;67767;45.636;11.756;2023-06-04T10:25:01;24.60;71.30
73137;DHT22;67767;45.636;11.756;2023-06-04T10:27:30;24.60;71.30
73137;DHT22;67767;45.636;11.756;2023-06-04T10:29:57;24.50;71.70
73137;DHT22;67767;45.636;11.756;2023-06-04T10:32:27;24.60;71.80
73137;DHT22;67767;45.636;11.756;2023-06-04T10:34:52;24.60;71.00
73137;DHT22;67767;45.636;11.756;2023-06-04T10:37:22;24.60;70.90
73137;DHT22;67767;45.636;11.756;2023-06-04T10:39:52;24.60;70.70
73137;DHT22;67767;45.636;11.756;2023-06-04T10:42:19;24.60;71.10
73137;DHT22;67767;45.636;11.756;2023-06-04T10:44:48;24.80;71.00
73137;DHT22;67767;45.636;11.756;2023-06-04T10:47:27;24.90;70.60
73137;DHT22;67767;45.636;11.756;2023-06-04T10:50:07;25.00;70.50
73137;DHT22;67767;45.636;11.756;2023-06-04T10:52:33;25.10;70.40
73137;DHT22;67767;45.636;11.756;2023-06-04T10:55:04;25.30;70.40
73137;DHT22;67767;45.636;11.756;2023-06-04T10:57:30;25.30;71.50
73137;DHT22;67767;45.636;11.756;2023-06-04T10:59:59;25.30;71.30
73137;DHT22;67767;45.636;11.756;2023-06-04T11:02:25;25.30;73.20
73137;DHT22;67767;45.636;11.756;2023-06-04T11:05:05;25.20;72.30
73137;DHT22;67767;45.636;11.756;2023-06-04T11:07:46;25.10;72.50
73137;DHT22;67767;45.636;11.756;2023-06-04T11:10:15;25.20;72.90
73137;DHT22;67767;45.636;11.756;2023-06-04T11:12:48;25.30;72.00
73137;DHT22;67767;45.636;11.756;2023-06-04T11:15:18;25.30;70.40
73137;DHT22;67767;45.636;11.756;2023-06-04T11:17:54;25.70;70.40
73137;DHT22;67767;45.636;11.756;2023-06-04T11:20:21;25.70;70.90
73137;DHT22;67767;45.636;11.756;2023-06-04T11:22:56;25.70;69.50
73137;DHT22;67767;45.636;11.756;2023-06-04T11:25:23;26.00;68.50
73137;DHT22;67767;45.636;11.756;2023-06-04T11:27:52;26.30;65.70
73137;DHT22;67767;45.636;11.756;2023-06-04T11:30:18;26.70;65.00
73137;DHT22;67767;45.636;11.756;2023-06-04T11:32:44;27.10;63.50
73137;DHT22;67767;45.636;11.756;2023-06-04T11:35:10;27.20;61.80
73137;DHT22;67767;45.636;11.756;2023-06-04T11:37:39;27.30;61.30
73137;DHT22;67767;45.636;11.756;2023-06-04T11:40:26;27.30;59.60
73137;DHT22;67767;45.636;11.756;2023-06-04T11:42:52;28.00;60.70
73137;DHT22;67767;45.636;11.756;2023-06-04T11:45:20;27.80;60.20
73137;DHT22;67767;45.636;11.756;2023-06-04T11:47:54;28.00;59.10
73137;DHT22;67767;45.636;11.756;2023-06-04T11:50:27;28.00;59.50
73137;DHT22;67767;45.636;11.756;2023-06-04T11:52:54;28.40;59.60
73137;DHT22;67767;45.636;11.756;2023-06-04T11:55:20;28.60;57.50
73137;DHT22;67767;45.636;11.756;2023-06-04T11:57:47;28.70;56.90
73137;DHT22;67767;45.636;11.756;2023-06-04T12:00:14;28.70;55.10
73137;DHT22;67767;45.636;11.756;2023-06-04T12:02:53;28.90;55.50
73137;DHT22;67767;45.636;11.756;2023-06-04T12:05:20;29.30;53.40
73137;DHT22;67767;45.636;11.756;2023-06-04T12:07:47;29.20;53.30
73137;DHT22;67767;45.636;11.756;2023-06-04T12:10:16;28.80;55.50
73137;DHT22;67767;45.636;11.756;2023-06-04T12:12:42;28.40;56.00
73137;DHT22;67767;45.636;11.756;2023-06-04T12:15:08;28.80;55.40
73137;DHT22;67767;45.636;11.756;2023-06-04T12:17:35;29.10;55.20
73137;DHT22;67767;45.636;11.756;2023-06-04T12:20:02;29.00;54.50
73137;DHT22;67767;45.636;11.756;2023-06-04T12:22:30;28.60;54.50
73137;DHT22;67767;45.636;11.756;2023-06-04T12:24:57;29.30;53.50
73137;DHT22;67767;45.636;11.756;2023-06-04T12:27:24;29.50;52.20
73137;DHT22;67767;45.636;11.756;2023-06-04T12:30:11;29.30;52.00
73137;DHT22;67767;45.636;11.756;2023-06-04T12:32:37;29.70;51.00
73137;DHT22;67767;45.636;11.756;2023-06-04T12:35:03;30.30;51.10
73137;DHT22;67767;45.636;11.756;2023-06-04T12:37:28;30.40;50.80
73137;DHT22;67767;45.636;11.756;2023-06-04T12:39:55;30.40;49.90
73137;DHT22;67767;45.636;11.756;2023-06-04T12:42:21;30.80;51.30
73137;DHT22;67767;45.636;11.756;2023-06-04T12:44:46;30.40;50.00
73137;DHT22;67767;45.636;11.756;2023-06-04T12:47:12;30.50;49.60
73137;DHT22;67767;45.636;11.756;2023-06-04T12:49:38;30.70;49.80
73137;DHT22;67767;45.636;11.756;2023-06-04T12:52:04;30.80;50.30
73137;DHT22;67767;45.636;11.756;2023-06-04T12:54:31;31.00;49.50
73137;DHT22;67767;45.636;11.756;2023-06-04T12:56:58;31.70;48.40
73137;DHT22;67767;45.636;11.756;2023-06-04T12:59:25;31.60;48.50
73137;DHT22;67767;45.636;11.756;2023-06-04T13:01:51;31.70;46.90
73137;DHT22;67767;45.636;11.756;2023-06-04T13:04:17;32.00;46.50
73137;DHT22;67767;45.636;11.756;2023-06-04T13:06:43;32.40;45.80
73137;DHT22;67767;45.636;11.756;2023-06-04T13:09:11;32.20;46.10
73137;DHT22;67767;45.636;11.756;2023-06-04T13:11:41;31.70;47.70
73137;DHT22;67767;45.636;11.756;2023-06-04T13:14:08;32.30;45.60
73137;DHT22;67767;45.636;11.756;2023-06-04T13:16:34;31.30;48.20
73137;DHT22;67767;45.636;11.756;2023-06-04T13:19:00;30.50;49.60
73137;DHT22;67767;45.636;11.756;2023-06-04T13:21:26;31.30;49.40
73137;DHT22;67767;45.636;11.756;2023-06-04T13:23:52;31.80;48.90
73137;DHT22;67767;45.636;11.756;2023-06-04T13:26:18;32.10;46.70
73137;DHT22;67767;45.636;11.756;2023-06-04T13:28:44;31.50;48.10
73137;DHT22;67767;45.636;11.756;2023-06-04T13:31:10;31.20;48.50
73137;DHT22;67767;45.636;11.756;2023-06-04T13:33:36;30.90;48.70
73137;DHT22;67767;45.636;11.756;2023-06-04T13:36:05;30.70;49.90
73137;DHT22;67767;45.636;11.756;2023-06-04T13:38:31;31.20;48.80
73137;DHT22;67767;45.636;11.756;2023-06-04T13:40:57;31.70;47.10
73137;DHT22;67767;45.636;11.756;2023-06-04T13:43:23;31.90;45.80
73137;DHT22;67767;45.636;11.756;2023-06-04T13:45:49;32.80;44.50
73137;DHT22;67767;45.636;11.756;2023-06-04T13:48:15;33.80;43.40
73137;DHT22;67767;45.636;11.756;2023-06-04T13:50:41;33.50;43.30
73137;DHT22;67767;45.636;11.756;2023-06-04T13:53:08;32.40;43.80
73137;DHT22;67767;45.636;11.756;2023-06-04T13:55:34;31.90;45.50
73137;DHT22;67767;45.636;11.756;2023-06-04T13:58:00;31.60;46.30
73137;DHT22;67767;45.636;11.756;2023-06-04T14:00:26;31.10;48.00
73137;DHT22;67767;45.636;11.756;2023-06-04T14:02:52;31.00;47.70
73137;DHT22;67767;45.636;11.756;2023-06-04T14:05:20;30.60;48.20
73137;DHT22;67767;45.636;11.756;2023-06-04T14:07:46;31.00;48.40
73137;DHT22;67767;45.636;11.756;2023-06-04T14:10:12;31.30;47.50
73137;DHT22;67767;45.636;11.756;2023-06-04T14:12:39;30.60;49.30
73137;DHT22;67767;45.636;11.756;2023-06-04T14:15:07;30.80;48.70
73137;DHT22;67767;45.636;11.756;2023-06-04T14:17:33;30.80;49.30
73137;DHT22;67767;45.636;11.756;2023-06-04T14:20:00;30.60;49.20
73137;DHT22;67767;45.636;11.756;2023-06-04T14:22:26;30.40;49.50
73137;DHT22;67767;45.636;11.756;2023-06-04T14:24:52;30.30;49.90
73137;DHT22;67767;45.636;11.756;2023-06-04T14:27:17;30.30;50.50
73137;DHT22;67767;45.636;11.756;2023-06-04T14:29:43;29.90;50.20
73137;DHT22;67767;45.636;11.756;2023-06-04T14:32:09;29.60;51.10
73137;DHT22;67767;45.636;11.756;2023-06-04T14:34:34;29.80;50.10
73137;DHT22;67767;45.636;11.756;2023-06-04T14:37:00;30.20;50.30
73137;DHT22;67767;45.636;11.756;2023-06-04T14:39:27;30.80;49.90
73137;DHT22;67767;45.636;11.756;2023-06-04T14:41:53;31.50;48.30
73137;DHT22;67767;45.636;11.756;2023-06-04T14:44:19;31.90;46.60
73137;DHT22;67767;45.636;11.756;2023-06-04T14:46:45;32.00;46.30
73137;DHT22;67767;45.636;11.756;2023-06-04T14:49:11;31.90;46.30
73137;DHT22;67767;45.636;11.756;2023-06-04T14:51:37;32.30;45.50
73137;DHT22;67767;45.636;11.756;2023-06-04T14:54:03;32.70;45.60
73137;DHT22;67767;45.636;11.756;2023-06-04T14:56:28;33.20;44.20
73137;DHT22;67767;45.636;11.756;2023-06-04T14:58:56;33.50;44.20
73137;DHT22;67767;45.636;11.756;2023-06-04T15:01:21;33.90;43.70
73137;DHT22;67767;45.636;11.756;2023-06-04T15:03:50;33.80;41.90
73137;DHT22;67767;45.636;11.756;2023-06-04T15:06:16;33.40;41.60
73137;DHT22;67767;45.636;11.756;2023-06-04T15:08:42;32.90;43.20
73137;DHT22;67767;45.636;11.756;2023-06-04T15:11:09;33.00;43.00
73137;DHT22;67767;45.636;11.756;2023-06-04T15:13:35;32.40;43.80
73137;DHT22;67767;45.636;11.756;2023-06-04T15:16:01;32.10;43.00
73137;DHT22;67767;45.636;11.756;2023-06-04T15:18:27;32.30;43.60